Time;durP1;ratioP1;P1;durP2;ratioP2;P2;SDS_P1;SDS_P2;PMS_P1;PMS_P2;Temp;Humidity;BMP_temperature;BMP_pressure;BME280_temperature;BME280_humidity;BME280_pressure;Samples;Min_cycle;Max_cycle;Signal;HPM_P1;HPM_P2
2023/08/15 00:00:19;;;;;;;11.60;11.10;;;;;;;;;;5067110;28;20013;-64
2023/08/15 00:02:45;;;;;;;11.85;11.35;;;;;;;;;;5069613;28;20068;-63
2023/08/15 00:05:10;;;;;;;11.88;11.38;;;;;;;;;;5069545;28;20104;-63
2023/08/15 00:07:35;;;;;;;11.40;10.90;;;;;;;;;;5067877;28;20048;-64
2023/08/15 00:10:01;;;;;;;11.38;10.88;;;;;;;;;;5070462;28;20031;-63
2023/08/15 00:12:26;;;;;;;11.50;11.00;;;;;;;;;;5067793;28;20028;-62
2023/08/15 00:14:51;;;;;;;11.32;10.82;;;;;;;;;;5066480;28;20095;-63
2023/08/15 00:17:17;;;;;;;12.20;11.63;;;;;;;;;;5068428;28;20075;-63
2023/08/15 00:19:42;;;;;;;11.93;11.43;;;;;;;;;;5073442;28;20017;-62
2023/08/15 00:22:07;;;;;;;12.00;11.50;;;;;;;;;;5069985;28;20017;-64
2023/08/15 00:24:32;;;;;;;11.77;11.27;;;;;;;;;;5073210;28;20373;-64
2023/08/15 00:26:58;;;;;;;12.23;11.63;;;;;;;;;;5068001;28;20028;-63
2023/08/15 00:29:23;;;;;;;11.60;11.10;;;;;;;;;;5071517;28;20028;-63
2023/08/15 00:31:48;;;;;;;11.80;11.30;;;;;;;;;;5071070;28;20102;-63
2023/08/15 00:34:14;;;;;;;11.30;10.80;;;;;;;;;;5071918;28;20250;-64
2023/08/15 00:36:39;;;;;;;12.00;11.50;;;;;;;;;;5071992;28;20098;-64
2023/08/15 00:39:04;;;;;;;11.32;10.82;;;;;;;;;;5072202;28;20021;-63
2023/08/15 00:41:30;;;;;;;11.30;10.80;;;;;;;;;;5072658;28;20024;-62
2023/08/15 00:43:58;;;;;;;11.80;11.30;;;;;;;;;;5072666;28;20016;-63
2023/08/15 00:46:24;;;;;;;11.45;10.95;;;;;;;;;;5072187;28;20464;-63
2023/08/15 00:48:49;;;;;;;12.20;11.60;;;;;;;;;;5071461;28;20549;-64
2023/08/15 00:51:16;;;;;;;11.80;11.30;;;;;;;;;;5075391;28;20017;-63
2023/08/15 00:53:42;;;;;;;11.65;11.15;;;;;;;;;;5071861;28;20044;-63
2023/08/15 00:56:07;;;;;;;11.60;11.10;;;;;;;;;;5071167;28;20594;-64
2023/08/15 00:58:34;;;;;;;12.20;11.60;;;;;;;;;;5072194;28;20032;-64
2023/08/15 01:00:59;;;;;;;11.55;11.05;;;;;;;;;;5071767;28;20109;-62
2023/08/15 01:03:24;;;;;;;12.43;11.82;;;;;;;;;;5071389;28;20124;-63
2023/08/15 01:05:50;;;;;;;11.85;11.35;;;;;;;;;;5067498;28;20137;-62
2023/08/15 01:08:15;;;;;;;11.57;11.07;;;;;;;;;;5070224;28;20101;-64
2023/08/15 01:10:42;;;;;;;11.43;10.93;;;;;;;;;;5072950;28;20074;-63
2023/08/15 01:13:26;;;;;;;11.45;10.95;;;;;;;;;;5071162;28;20113;-63
2023/08/15 01:15:51;;;;;;;;;;;;;;;;;;5069620;28;20025;-63
2023/08/15 01:18:23;;;;;;;11.50;11.00;;;;;;;;;;5069477;28;19919;-63
2023/08/15 01:20:49;;;;;;;11.40;10.90;;;;;;;;;;5072060;28;20256;-63
2023/08/15 01:23:16;;;;;;;11.15;10.65;;;;;;;;;;5080215;28;20081;-64
2023/08/15 01:25:42;;;;;;;11.25;10.75;;;;;;;;;;5072408;28;20020;-64
2023/08/15 01:28:11;;;;;;;11.70;11.20;;;;;;;;;;5070019;28;20033;-63
2023/08/15 01:30:39;;;;;;;11.07;10.57;;;;;;;;;;5070824;28;20035;-63
2023/08/15 01:33:10;;;;;;;11.38;10.88;;;;;;;;;;5068839;28;20514;-64
2023/08/15 01:35:42;;;;;;;11.18;10.68;;;;;;;;;;5071735;28;20031;-62
2023/08/15 01:38:12;;;;;;;11.55;11.05;;;;;;;;;;5072786;28;20029;-63
2023/08/15 01:40:39;;;;;;;11.50;11.00;;;;;;;;;;5070911;28;20031;-64
2023/08/15 01:43:05;;;;;;;11.20;10.70;;;;;;;;;;5071464;28;20025;-64
2023/08/15 01:45:31;;;;;;;11.30;10.80;;;;;;;;;;5071163;28;20037;-63
2023/08/15 01:47:57;;;;;;;11.68;11.18;;;;;;;;;;5071044;28;20020;-65
2023/08/15 01:50:22;;;;;;;11.20;10.70;;;;;;;;;;5071049;28;20024;-63
2023/08/15 01:52:48;;;;;;;11.48;10.98;;;;;;;;;;5069541;28;20032;-64
2023/08/15 01:55:13;;;;;;;11.63;11.13;;;;;;;;;;5070581;28;20016;-63
2023/08/15 01:57:38;;;;;;;11.07;10.57;;;;;;;;;;5073221;28;20020;-63
2023/08/15 02:00:04;;;;;;;11.50;11.00;;;;;;;;;;5068960;28;20051;-64
2023/08/15 02:02:29;;;;;;;11.40;10.90;;;;;;;;;;5070080;28;20029;-63
2023/08/15 02:04:55;;;;;;;11.60;11.10;;;;;;;;;;5069051;28;20031;-62
2023/08/15 02:07:20;;;;;;;11.60;11.10;;;;;;;;;;5068758;28;20464;-63
2023/08/15 02:09:46;;;;;;;11.60;11.10;;;;;;;;;;5073798;28;20024;-64
2023/08/15 02:12:11;;;;;;;11.88;11.38;;;;;;;;;;5069452;28;20036;-64
2023/08/15 02:14:36;;;;;;;11.60;11.10;;;;;;;;;;5071663;28;20076;-63
2023/08/15 02:17:02;;;;;;;11.38;10.88;;;;;;;;;;5070979;28;20064;-64
2023/08/15 02:19:28;;;;;;;11.35;10.85;;;;;;;;;;5071109;28;20024;-63
2023/08/15 02:21:54;;;;;;;11.25;10.75;;;;;;;;;;5070154;28;20024;-63
2023/08/15 02:24:19;;;;;;;11.52;11.02;;;;;;;;;;5069446;28;20064;-64
2023/08/15 02:26:44;;;;;;;11.48;10.98;;;;;;;;;;5070775;28;20033;-63
2023/08/15 02:29:10;;;;;;;11.40;10.90;;;;;;;;;;5068558;28;20458;-63
2023/08/15 02:31:42;;;;;;;11.20;10.70;;;;;;;;;;5071212;28;20257;-62
2023/08/15 02:34:07;;;;;;;11.27;10.77;;;;;;;;;;5069928;28;20017;-63
2023/08/15 02:36:32;;;;;;;11.20;10.70;;;;;;;;;;5052999;28;20040;-63
2023/08/15 02:38:57;;;;;;;11.23;10.73;;;;;;;;;;5067608;28;20017;-63
2023/08/15 02:41:23;;;;;;;11.40;10.90;;;;;;;;;;5069970;28;20082;-62
2023/08/15 02:43:48;;;;;;;11.30;10.80;;;;;;;;;;5067626;28;20387;-63
2023/08/15 02:46:14;;;;;;;11.70;11.20;;;;;;;;;;5068662;28;20025;-63
2023/08/15 02:48:39;;;;;;;11.20;10.70;;;;;;;;;;5071980;28;20021;-62
2023/08/15 02:51:07;;;;;;;11.43;10.93;;;;;;;;;;5053158;28;20416;-64
2023/08/15 02:53:32;;;;;;;11.35;10.85;;;;;;;;;;5071620;28;20024;-62
2023/08/15 02:55:58;;;;;;;11.43;10.93;;;;;;;;;;5069440;28;20029;-63
2023/08/15 02:58:24;;;;;;;11.60;11.10;;;;;;;;;;5051939;28;20035;-63
2023/08/15 03:00:49;;;;;;;11.20;10.70;;;;;;;;;;5068664;28;20043;-63
2023/08/15 03:03:14;;;;;;;11.32;10.82;;;;;;;;;;5068991;28;20045;-64
2023/08/15 03:05:40;;;;;;;11.30;10.80;;;;;;;;;;5066364;28;20085;-63
2023/08/15 03:08:05;;;;;;;11.02;10.52;;;;;;;;;;5069321;28;20024;-63
2023/08/15 03:10:32;;;;;;;11.57;11.07;;;;;;;;;;5072126;28;20040;-64
2023/08/15 03:12:58;;;;;;;11.70;11.20;;;;;;;;;;5069680;28;20028;-63
2023/08/15 03:15:23;;;;;;;11.45;10.95;;;;;;;;;;5067277;28;20021;-63
2023/08/15 03:17:50;;;;;;;11.80;11.30;;;;;;;;;;5070259;28;20091;-63
2023/08/15 03:20:16;;;;;;;11.60;11.10;;;;;;;;;;5067645;28;20027;-64
2023/08/15 03:22:43;;;;;;;11.23;10.73;;;;;;;;;;5069713;28;20017;-63
2023/08/15 03:25:09;;;;;;;11.05;10.55;;;;;;;;;;5069509;28;20099;-63
2023/08/15 03:27:34;;;;;;;11.18;10.68;;;;;;;;;;5072634;28;20110;-64
2023/08/15 03:29:59;;;;;;;11.32;10.82;;;;;;;;;;5069013;28;20361;-65
2023/08/15 03:32:25;;;;;;;11.32;10.82;;;;;;;;;;5070249;28;20037;-64
2023/08/15 03:34:50;;;;;;;11.13;10.63;;;;;;;;;;5069942;28;20029;-64
2023/08/15 03:37:15;;;;;;;11.80;11.30;;;;;;;;;;5069406;28;20032;-63
2023/08/15 03:39:41;;;;;;;11.70;11.20;;;;;;;;;;5069436;28;20024;-64
2023/08/15 03:42:07;;;;;;;11.70;11.20;;;;;;;;;;5069449;28;20478;-64
2023/08/15 03:44:32;;;;;;;11.48;10.98;;;;;;;;;;5069732;28;20039;-64
2023/08/15 03:46:58;;;;;;;12.00;11.50;;;;;;;;;;5070101;28;20155;-63
2023/08/15 03:49:23;;;;;;;11.52;11.02;;;;;;;;;;5068791;28;20028;-63
2023/08/15 03:51:48;;;;;;;11.57;11.07;;;;;;;;;;5069033;28;20131;-64
2023/08/15 03:54:14;;;;;;;11.38;10.88;;;;;;;;;;5070760;28;20021;-64
2023/08/15 03:56:39;;;;;;;11.70;11.20;;;;;;;;;;5073139;28;20450;-63
2023/08/15 03:59:04;;;;;;;11.70;11.20;;;;;;;;;;5073485;28;20116;-63
2023/08/15 04:01:30;;;;;;;11.77;11.27;;;;;;;;;;5073585;28;20021;-64
2023/08/15 04:03:56;;;;;;;12.15;11.65;;;;;;;;;;5072630;28;20757;-64
2023/08/15 04:06:22;;;;;;;12.07;11.57;;;;;;;;;;5073453;28;20024;-64
2023/08/15 04:08:47;;;;;;;11.63;11.13;;;;;;;;;;5079250;28;20020;-64
2023/08/15 04:11:12;;;;;;;11.68;11.18;;;;;;;;;;5073578;28;20023;-66
2023/08/15 04:13:38;;;;;;;11.98;11.48;;;;;;;;;;5073322;28;20538;-62
2023/08/15 04:16:03;;;;;;;11.90;11.40;;;;;;;;;;5072028;28;20108;-64
2023/08/15 04:18:28;;;;;;;11.73;11.23;;;;;;;;;;5072018;28;20273;-63
2023/08/15 04:20:53;;;;;;;11.80;11.30;;;;;;;;;;5072256;28;20016;-63
2023/08/15 04:23:19;;;;;;;11.68;11.18;;;;;;;;;;5072933;28;20502;-64
2023/08/15 04:25:45;;;;;;;11.73;11.23;;;;;;;;;;5073778;28;20012;-64
2023/08/15 04:28:11;;;;;;;12.05;11.55;;;;;;;;;;5072071;28;20257;-64
2023/08/15 04:30:36;;;;;;;12.13;11.63;;;;;;;;;;5073737;28;20438;-64
2023/08/15 04:33:01;;;;;;;11.98;11.48;;;;;;;;;;5071992;28;20036;-64
2023/08/15 04:35:27;;;;;;;11.75;11.25;;;;;;;;;;5072012;28;20387;-64
2023/08/15 04:37:52;;;;;;;11.93;11.43;;;;;;;;;;5072220;28;20021;-65
2023/08/15 04:40:43;;;;;;;11.70;11.20;;;;;;;;;;5072599;28;20171;-63
2023/08/15 04:43:09;;;;;;;11.93;11.43;;;;;;;;;;5070233;28;20131;-65
2023/08/15 04:45:40;;;;;;;12.30;11.80;;;;;;;;;;5071112;28;20024;-64
2023/08/15 04:48:09;;;;;;;12.35;11.82;;;;;;;;;;5070124;28;20027;-64
2023/08/15 04:50:34;;;;;;;12.32;11.82;;;;;;;;;;5072647;28;20071;-65
2023/08/15 04:52:59;;;;;;;12.13;11.63;;;;;;;;;;5071846;28;20497;-64
2023/08/15 04:55:25;;;;;;;12.13;11.63;;;;;;;;;;5072881;28;20024;-64
2023/08/15 04:57:50;;;;;;;12.00;11.50;;;;;;;;;;5054869;28;20292;-65
2023/08/15 05:00:19;;;;;;;12.45;11.90;;;;;;;;;;5072035;28;20253;-64
2023/08/15 05:02:44;;;;;;;12.35;11.85;;;;;;;;;;5065416;28;20037;-65
2023/08/15 05:05:10;;;;;;;12.60;12.00;;;;;;;;;;5056450;28;20021;-64
2023/08/15 05:07:36;;;;;;;12.25;11.75;;;;;;;;;;5062073;28;20024;-65
2023/08/15 05:10:01;;;;;;;12.18;11.68;;;;;;;;;;5061422;28;20085;-65
2023/08/15 05:12:27;;;;;;;12.70;12.10;;;;;;;;;;5058654;28;20029;-64
2023/08/15 05:14:52;;;;;;;11.90;11.40;;;;;;;;;;5053262;28;20021;-65
2023/08/15 05:17:17;;;;;;;12.15;11.65;;;;;;;;;;5055329;28;20542;-64
2023/08/15 05:19:43;;;;;;;12.30;11.80;;;;;;;;;;5057504;28;20020;-64
2023/08/15 05:22:08;;;;;;;12.00;11.50;;;;;;;;;;5062739;28;20250;-63
2023/08/15 05:24:33;;;;;;;11.97;11.47;;;;;;;;;;5059611;28;20362;-64
2023/08/15 05:26:59;;;;;;;12.60;12.00;;;;;;;;;;5060231;28;20020;-64
2023/08/15 05:29:24;;;;;;;12.30;11.80;;;;;;;;;;5064454;28;20273;-63
2023/08/15 05:31:50;;;;;;;12.30;11.80;;;;;;;;;;5062710;28;20263;-64
2023/08/15 05:34:16;;;;;;;12.15;11.65;;;;;;;;;;5055204;28;20055;-64
2023/08/15 05:36:41;;;;;;;12.20;11.70;;;;;;;;;;5051965;28;20169;-65
2023/08/15 05:39:07;;;;;;;12.37;11.83;;;;;;;;;;5059226;28;20032;-66
2023/08/15 05:41:32;;;;;;;12.32;11.82;;;;;;;;;;5042788;28;20262;-65
2023/08/15 05:43:58;;;;;;;12.63;12.02;;;;;;;;;;5056649;28;20020;-66
2023/08/15 05:46:23;;;;;;;12.40;11.90;;;;;;;;;;5056516;28;20047;-65
2023/08/15 05:48:48;;;;;;;12.30;11.80;;;;;;;;;;5051619;28;20109;-64
2023/08/15 05:51:13;;;;;;;12.57;11.97;;;;;;;;;;5062792;28;20328;-65
2023/08/15 05:53:39;;;;;;;11.97;11.47;;;;;;;;;;5057937;28;20392;-65
2023/08/15 05:56:05;;;;;;;12.38;11.88;;;;;;;;;;5059327;28;20245;-65
2023/08/15 05:58:30;;;;;;;12.60;12.00;;;;;;;;;;5062300;28;20039;-64
2023/08/15 06:00:55;;;;;;;12.13;11.63;;;;;;;;;;5061823;28;20253;-64
2023/08/15 06:03:21;;;;;;;12.10;11.60;;;;;;;;;;5054326;28;20049;-65
2023/08/15 06:05:46;;;;;;;12.23;11.73;;;;;;;;;;5051215;28;20021;-65
2023/08/15 06:08:11;;;;;;;12.10;11.60;;;;;;;;;;5052082;28;20261;-64
2023/08/15 06:10:37;;;;;;;11.93;11.43;;;;;;;;;;5051160;28;20484;-65
2023/08/15 06:13:02;;;;;;;12.10;11.60;;;;;;;;;;5062071;28;20056;-66
2023/08/15 06:15:28;;;;;;;12.55;11.95;;;;;;;;;;5058093;28;20021;-66
2023/08/15 06:17:53;;;;;;;12.70;12.10;;;;;;;;;;5053259;28;20480;-66
2023/08/15 06:20:19;;;;;;;12.07;11.57;;;;;;;;;;5055436;28;20020;-64
2023/08/15 06:22:44;;;;;;;12.15;11.65;;;;;;;;;;5058583;28;20242;-64
2023/08/15 06:25:10;;;;;;;12.03;11.53;;;;;;;;;;5059761;28;20024;-63
2023/08/15 06:27:35;;;;;;;12.70;12.10;;;;;;;;;;5053198;28;20395;-65
2023/08/15 06:30:00;;;;;;;12.50;11.90;;;;;;;;;;5053344;28;20527;-64
2023/08/15 06:32:30;;;;;;;12.45;11.93;;;;;;;;;;5054817;28;20293;-64
2023/08/15 06:34:56;;;;;;;12.38;11.88;;;;;;;;;;5059793;28;20024;-64
2023/08/15 06:37:22;;;;;;;12.35;11.85;;;;;;;;;;5056585;28;20028;-64
2023/08/15 06:39:47;;;;;;;12.40;11.88;;;;;;;;;;5059064;28;20084;-64
2023/08/15 06:42:13;;;;;;;12.33;11.83;;;;;;;;;;5057950;28;20431;-64
2023/08/15 06:44:38;;;;;;;12.18;11.68;;;;;;;;;;5056918;28;20009;-66
2023/08/15 06:47:04;;;;;;;13.00;12.40;;;;;;;;;;5056181;28;20028;-65
2023/08/15 06:49:29;;;;;;;12.82;12.23;;;;;;;;;;5053935;28;20867;-64
2023/08/15 06:51:54;;;;;;;12.70;12.10;;;;;;;;;;5062277;28;20043;-65
2023/08/15 06:54:20;;;;;;;12.87;12.27;;;;;;;;;;5058713;28;20421;-64
2023/08/15 06:56:45;;;;;;;11.80;11.30;;;;;;;;;;5055581;28;20062;-65
2023/08/15 06:59:11;;;;;;;11.87;11.37;;;;;;;;;;5056464;28;20089;-65
2023/08/15 07:01:36;;;;;;;12.00;11.50;;;;;;;;;;5054117;28;20756;-64
2023/08/15 07:04:01;;;;;;;12.13;11.63;;;;;;;;;;5055387;28;20041;-65
2023/08/15 07:06:26;;;;;;;12.17;11.67;;;;;;;;;;5057360;28;20016;-64
2023/08/15 07:08:52;;;;;;;12.50;11.93;;;;;;;;;;5056288;28;20025;-64
2023/08/15 07:11:17;;;;;;;12.30;11.80;;;;;;;;;;5053429;28;20238;-64
2023/08/15 07:13:43;;;;;;;12.18;11.68;;;;;;;;;;5056711;28;20111;-65
2023/08/15 07:16:08;;;;;;;11.87;11.37;;;;;;;;;;5054082;28;20024;-63
2023/08/15 07:18:33;;;;;;;12.17;11.67;;;;;;;;;;5051898;28;20284;-65
2023/08/15 07:20:59;;;;;;;12.33;11.83;;;;;;;;;;5051497;28;20285;-65
2023/08/15 07:23:25;;;;;;;12.52;11.95;;;;;;;;;;5055492;28;20592;-64
2023/08/15 07:25:50;;;;;;;12.27;11.77;;;;;;;;;;5054855;28;20104;-65
2023/08/15 07:28:15;;;;;;;12.57;11.97;;;;;;;;;;5061297;28;20068;-65
2023/08/15 07:30:45;;;;;;;12.70;12.10;;;;;;;;;;5062400;28;20048;-64
2023/08/15 07:33:10;;;;;;;12.82;12.23;;;;;;;;;;5060458;28;20503;-65
2023/08/15 07:35:35;;;;;;;12.63;12.02;;;;;;;;;;5058668;28;20062;-64
2023/08/15 07:38:01;;;;;;;12.32;11.82;;;;;;;;;;5059100;28;20032;-64
2023/08/15 07:40:26;;;;;;;12.30;11.80;;;;;;;;;;5062140;28;20112;-65
2023/08/15 07:42:54;;;;;;;12.30;11.80;;;;;;;;;;5057268;28;20103;-64
2023/08/15 07:45:19;;;;;;;12.70;12.10;;;;;;;;;;5059271;28;20025;-66
2023/08/15 07:47:48;;;;;;;12.45;11.90;;;;;;;;;;5057469;28;20546;-65
2023/08/15 07:50:17;;;;;;;12.18;11.68;;;;;;;;;;5056211;28;20020;-65
2023/08/15 07:52:43;;;;;;;12.60;12.00;;;;;;;;;;5061215;28;21070;-65
2023/08/15 07:55:08;;;;;;;12.70;12.10;;;;;;;;;;5059545;28;20025;-65
2023/08/15 07:57:34;;;;;;;12.35;11.85;;;;;;;;;;5053657;28;20120;-64
2023/08/15 07:59:59;;;;;;;12.60;12.00;;;;;;;;;;5055170;28;20469;-64
2023/08/15 08:02:24;;;;;;;12.10;11.60;;;;;;;;;;5060389;28;20021;-65
2023/08/15 08:04:50;;;;;;;12.52;11.95;;;;;;;;;;5067388;28;20264;-65
2023/08/15 08:07:15;;;;;;;11.95;11.45;;;;;;;;;;5074137;28;20468;-65
2023/08/15 08:09:40;;;;;;;11.90;11.40;;;;;;;;;;5072650;28;20020;-64
2023/08/15 08:12:08;;;;;;;11.83;11.33;;;;;;;;;;5073175;28;20051;-64
2023/08/15 08:14:33;;;;;;;11.80;11.30;;;;;;;;;;5072332;28;20086;-64
2023/08/15 08:16:58;;;;;;;12.03;11.53;;;;;;;;;;5073349;28;20643;-64
2023/08/15 08:19:24;;;;;;;11.60;11.10;;;;;;;;;;5072422;28;20028;-65
2023/08/15 08:21:49;;;;;;;11.73;11.23;;;;;;;;;;5073563;28;20336;-63
2023/08/15 08:24:14;;;;;;;12.10;11.60;;;;;;;;;;5055638;28;20395;-65
2023/08/15 08:26:40;;;;;;;11.80;11.30;;;;;;;;;;5069659;28;20029;-64
2023/08/15 08:29:06;;;;;;;11.88;11.38;;;;;;;;;;5072447;28;20090;-64
2023/08/15 08:31:31;;;;;;;11.90;11.40;;;;;;;;;;5071189;28;20062;-64
2023/08/15 08:33:57;;;;;;;11.80;11.30;;;;;;;;;;5073081;28;20020;-64
2023/08/15 08:36:22;;;;;;;12.10;11.60;;;;;;;;;;5071076;28;20028;-64
2023/08/15 08:38:47;;;;;;;11.80;11.30;;;;;;;;;;5073180;28;20031;-64
2023/08/15 08:41:13;;;;;;;12.00;11.50;;;;;;;;;;5073087;28;20249;-64
2023/08/15 08:43:39;;;;;;;12.25;11.75;;;;;;;;;;5073079;28;20020;-65
2023/08/15 08:46:05;;;;;;;11.95;11.45;;;;;;;;;;5071393;28;20435;-65
2023/08/15 08:48:31;;;;;;;12.00;11.50;;;;;;;;;;5072491;28;20025;-64
2023/08/15 08:50:57;;;;;;;11.88;11.38;;;;;;;;;;5071370;28;20441;-64
2023/08/15 08:53:22;;;;;;;12.20;11.70;;;;;;;;;;5071649;28;20028;-66
2023/08/15 08:55:48;;;;;;;11.63;11.13;;;;;;;;;;5074408;28;20031;-63
2023/08/15 08:58:13;;;;;;;11.95;11.45;;;;;;;;;;5071443;28;20404;-64
2023/08/15 09:00:40;;;;;;;11.88;11.38;;;;;;;;;;5071082;28;20025;-63
2023/08/15 09:03:05;;;;;;;11.80;11.30;;;;;;;;;;5071864;28;20132;-65
2023/08/15 09:05:30;;;;;;;12.00;11.50;;;;;;;;;;5068878;28;20474;-64
2023/08/15 09:07:57;;;;;;;12.70;12.10;;;;;;;;;;5074721;28;20347;-65
2023/08/15 09:10:23;;;;;;;11.90;11.40;;;;;;;;;;5073029;28;20636;-64
2023/08/15 09:12:49;;;;;;;12.25;11.75;;;;;;;;;;5071905;28;20036;-64
2023/08/15 09:15:14;;;;;;;12.32;11.82;;;;;;;;;;5070233;28;20052;-65
2023/08/15 09:17:40;;;;;;;12.10;11.60;;;;;;;;;;5068616;28;20585;-63
2023/08/15 09:20:10;;;;;;;11.75;11.25;;;;;;;;;;5071472;28;20111;-63
2023/08/15 09:22:36;;;;;;;12.05;11.55;;;;;;;;;;5070834;28;20556;-64
2023/08/15 09:25:03;;;;;;;12.10;11.60;;;;;;;;;;5072670;28;20388;-65
2023/08/15 09:27:29;;;;;;;12.10;11.60;;;;;;;;;;5071076;28;20514;-63
2023/08/15 09:29:54;;;;;;;12.13;11.63;;;;;;;;;;5070326;28;20051;-65
2023/08/15 09:32:19;;;;;;;12.05;11.55;;;;;;;;;;5071215;28;20264;-65
2023/08/15 09:34:44;;;;;;;11.97;11.47;;;;;;;;;;5072963;28;20039;-65
2023/08/15 09:37:10;;;;;;;12.00;11.50;;;;;;;;;;5072771;28;20456;-63
2023/08/15 09:39:35;;;;;;;11.77;11.27;;;;;;;;;;5054295;28;20096;-64
2023/08/15 09:42:00;;;;;;;12.20;11.70;;;;;;;;;;5072811;28;20265;-64
2023/08/15 09:44:34;;;;;;;11.90;11.40;;;;;;;;;;5071416;28;20432;-65
2023/08/15 09:47:00;;;;;;;12.05;11.55;;;;;;;;;;5066134;28;20116;-63
2023/08/15 09:49:27;;;;;;;11.90;11.40;;;;;;;;;;5071443;28;20122;-63
2023/08/15 09:51:52;;;;;;;11.88;11.38;;;;;;;;;;5069835;28;20036;-65
2023/08/15 09:54:18;;;;;;;12.07;11.57;;;;;;;;;;5070220;28;20071;-64
2023/08/15 09:56:44;;;;;;;11.55;11.05;;;;;;;;;;5067983;28;20707;-63
2023/08/15 09:59:09;;;;;;;11.60;11.10;;;;;;;;;;5071368;28;20023;-63
2023/08/15 10:01:37;;;;;;;12.10;11.60;;;;;;;;;;5070091;28;20384;-64
2023/08/15 10:04:07;;;;;;;11.90;11.40;;;;;;;;;;5069052;28;20036;-65
2023/08/15 10:06:34;;;;;;;11.82;11.32;;;;;;;;;;5071276;28;20070;-65
2023/08/15 10:08:59;;;;;;;11.40;10.90;;;;;;;;;;5069112;28;20554;-64
2023/08/15 10:11:26;;;;;;;11.63;11.13;;;;;;;;;;5072084;28;20056;-65
2023/08/15 10:13:51;;;;;;;11.77;11.27;;;;;;;;;;5070568;28;20028;-64
2023/08/15 10:16:17;;;;;;;11.95;11.45;;;;;;;;;;5069855;28;20024;-64
2023/08/15 10:18:56;;;;;;;11.88;11.38;;;;;;;;;;5069274;28;20016;-64
2023/08/15 10:21:23;;;;;;;11.82;11.32;;;;;;;;;;5068505;28;20781;-63
2023/08/15 10:23:48;;;;;;;11.90;11.40;;;;;;;;;;5069788;28;20028;-64
2023/08/15 10:26:13;;;;;;;11.70;11.20;;;;;;;;;;5068647;28;20013;-63
2023/08/15 10:28:39;;;;;;;11.75;11.25;;;;;;;;;;5051895;28;20475;-64
2023/08/15 10:31:06;;;;;;;11.73;11.23;;;;;;;;;;5070244;28;20032;-64
2023/08/15 10:33:32;;;;;;;11.75;11.25;;;;;;;;;;5069910;28;20431;-65
2023/08/15 10:35:57;;;;;;;11.73;11.23;;;;;;;;;;5070263;28;20040;-64
2023/08/15 10:38:43;;;;;;;11.77;11.27;;;;;;;;;;5070264;28;20499;-65
2023/08/15 10:41:19;;;;;;;11.57;11.07;;;;;;;;;;5050155;28;20268;-66
2023/08/15 10:43:49;;;;;;;11.90;11.40;;;;;;;;;;5067125;28;20024;-64
2023/08/15 10:46:15;;;;;;;11.88;11.38;;;;;;;;;;5066766;28;20013;-65
2023/08/15 10:48:41;;;;;;;12.02;11.52;;;;;;;;;;5055317;28;20020;-65
2023/08/15 10:51:14;;;;;;;11.90;11.40;;;;;;;;;;5069788;28;20103;-64
2023/08/15 10:53:40;;;;;;;12.00;11.50;;;;;;;;;;5067248;28;20029;-64
2023/08/15 10:56:06;;;;;;;11.77;11.27;;;;;;;;;;5070179;28;20083;-64
2023/08/15 10:58:32;;;;;;;12.00;11.50;;;;;;;;;;5068579;28;20024;-64
2023/08/15 11:00:57;;;;;;;11.68;11.18;;;;;;;;;;5068082;28;20048;-64
2023/08/15 11:03:23;;;;;;;11.82;11.32;;;;;;;;;;5070011;28;20052;-63
2023/08/15 11:05:49;;;;;;;11.90;11.40;;;;;;;;;;5071551;28;20013;-64
2023/08/15 11:08:15;;;;;;;11.73;11.23;;;;;;;;;;5070317;28;20078;-64
2023/08/15 11:10:50;;;;;;;11.93;11.43;;;;;;;;;;5070477;28;20276;-64
2023/08/15 11:13:16;;;;;;;11.90;11.40;;;;;;;;;;5068577;28;20039;-64
2023/08/15 11:15:42;;;;;;;12.10;11.60;;;;;;;;;;5068037;28;20031;-65
2023/08/15 11:18:08;;;;;;;12.00;11.50;;;;;;;;;;5072728;28;20028;-64
2023/08/15 11:20:33;;;;;;;11.80;11.30;;;;;;;;;;5068232;28;20112;-64
2023/08/15 11:22:59;;;;;;;11.82;11.32;;;;;;;;;;5069994;28;20104;-65
2023/08/15 11:25:25;;;;;;;11.57;11.07;;;;;;;;;;5069950;28;20027;-64
2023/08/15 11:27:50;;;;;;;11.60;11.10;;;;;;;;;;5070049;28;20032;-65
2023/08/15 11:30:16;;;;;;;11.85;11.35;;;;;;;;;;5066974;28;20082;-64
2023/08/15 11:32:41;;;;;;;11.68;11.18;;;;;;;;;;5068699;28;20047;-65
2023/08/15 11:35:10;;;;;;;11.65;11.15;;;;;;;;;;5069485;28;20388;-64
2023/08/15 11:37:36;;;;;;;12.02;11.52;;;;;;;;;;5051503;28;20020;-64
2023/08/15 11:40:02;;;;;;;11.70;11.20;;;;;;;;;;5052927;28;20502;-64
2023/08/15 11:42:27;;;;;;;12.05;11.55;;;;;;;;;;5069314;28;20479;-64
2023/08/15 11:45:02;;;;;;;12.05;11.55;;;;;;;;;;5068245;28;20020;-64
2023/08/15 11:47:37;;;;;;;11.90;11.40;;;;;;;;;;5066042;28;20652;-64
2023/08/15 11:50:09;;;;;;;11.93;11.43;;;;;;;;;;5068670;28;20773;-64
2023/08/15 11:52:45;;;;;;;11.70;11.20;;;;;;;;;;5067664;28;20055;-64
2023/08/15 11:55:10;;;;;;;11.43;10.93;;;;;;;;;;5066003;28;20043;-65
2023/08/15 11:57:36;;;;;;;11.65;11.15;;;;;;;;;;5069618;28;20021;-64
2023/08/15 12:00:01;;;;;;;11.73;11.23;;;;;;;;;;5068300;28;20051;-64
2023/08/15 12:02:27;;;;;;;11.32;10.82;;;;;;;;;;5069729;28;20047;-64
2023/08/15 12:04:52;;;;;;;11.77;11.27;;;;;;;;;;5066734;28;20031;-64
2023/08/15 12:07:19;;;;;;;11.60;11.10;;;;;;;;;;5068695;28;20052;-64
2023/08/15 12:09:45;;;;;;;11.65;11.15;;;;;;;;;;5068542;28;20032;-64
2023/08/15 12:12:16;;;;;;;11.63;11.13;;;;;;;;;;5068086;28;20016;-66
2023/08/15 12:14:42;;;;;;;11.55;11.05;;;;;;;;;;5070537;28;20016;-64
2023/08/15 12:17:07;;;;;;;11.52;11.02;;;;;;;;;;5077000;28;20701;-63
2023/08/15 12:19:32;;;;;;;12.10;11.60;;;;;;;;;;5054493;28;20025;-65
2023/08/15 12:21:58;;;;;;;11.82;11.32;;;;;;;;;;5073624;28;20023;-63
2023/08/15 12:24:24;;;;;;;11.70;11.20;;;;;;;;;;5072042;28;20095;-64
2023/08/15 12:26:49;;;;;;;12.07;11.57;;;;;;;;;;5072415;28;20023;-64
2023/08/15 12:29:14;;;;;;;11.93;11.43;;;;;;;;;;5070122;28;20450;-64
2023/08/15 12:31:40;;;;;;;11.60;11.10;;;;;;;;;;5072816;28;20416;-63
2023/08/15 12:34:05;;;;;;;11.70;11.20;;;;;;;;;;5070850;28;20249;-65
2023/08/15 12:36:31;;;;;;;11.82;11.32;;;;;;;;;;5074296;28;20020;-64
2023/08/15 12:38:56;;;;;;;11.98;11.48;;;;;;;;;;5077807;28;20017;-65
2023/08/15 12:41:21;;;;;;;11.70;11.20;;;;;;;;;;5072684;28;20108;-64
2023/08/15 12:43:47;;;;;;;11.77;11.27;;;;;;;;;;5073811;28;20019;-66
2023/08/15 12:46:13;;;;;;;11.70;11.20;;;;;;;;;;5073015;28;20777;-62
2023/08/15 12:48:38;;;;;;;12.00;11.50;;;;;;;;;;5075699;28;20242;-64
2023/08/15 12:51:04;;;;;;;12.05;11.55;;;;;;;;;;5072453;28;20050;-65
2023/08/15 12:53:29;;;;;;;11.80;11.30;;;;;;;;;;5072513;28;20564;-64
2023/08/15 12:55:54;;;;;;;11.77;11.27;;;;;;;;;;5071333;28;20435;-64
2023/08/15 12:58:19;;;;;;;11.77;11.27;;;;;;;;;;5072135;28;20027;-63
2023/08/15 13:00:48;;;;;;;11.60;11.10;;;;;;;;;;5074129;28;20407;-63
2023/08/15 13:03:13;;;;;;;11.70;11.20;;;;;;;;;;5071816;28;20033;-65
2023/08/15 13:05:39;;;;;;;11.77;11.27;;;;;;;;;;5069933;28;20036;-64
2023/08/15 13:08:04;;;;;;;11.82;11.32;;;;;;;;;;5053810;28;20348;-64
2023/08/15 13:10:29;;;;;;;11.55;11.05;;;;;;;;;;5070278;28;20024;-65
2023/08/15 13:12:54;;;;;;;11.70;11.20;;;;;;;;;;5071662;28;20024;-65
2023/08/15 13:15:20;;;;;;;11.70;11.20;;;;;;;;;;5070627;28;20025;-63
2023/08/15 13:17:45;;;;;;;11.93;11.43;;;;;;;;;;5070851;28;20020;-65
2023/08/15 13:20:11;;;;;;;11.60;11.10;;;;;;;;;;5069254;28;20311;-64
2023/08/15 13:22:37;;;;;;;11.90;11.40;;;;;;;;;;5051615;28;20035;-65
2023/08/15 13:25:02;;;;;;;11.63;11.13;;;;;;;;;;5072046;28;20017;-64
2023/08/15 13:27:27;;;;;;;11.40;10.90;;;;;;;;;;5072424;28;20040;-64
2023/08/15 13:29:53;;;;;;;11.68;11.18;;;;;;;;;;5073381;28;20020;-64
2023/08/15 13:32:18;;;;;;;11.43;10.93;;;;;;;;;;5067702;28;20020;-65
2023/08/15 13:34:43;;;;;;;11.90;11.40;;;;;;;;;;5070341;28;20028;-64
2023/08/15 13:37:09;;;;;;;11.68;11.18;;;;;;;;;;5070060;28;20673;-65
2023/08/15 13:39:34;;;;;;;11.75;11.25;;;;;;;;;;5073168;28;20028;-65
2023/08/15 13:42:00;;;;;;;12.07;11.57;;;;;;;;;;5071201;28;20024;-64
2023/08/15 13:44:25;;;;;;;11.60;11.10;;;;;;;;;;5070087;28;20025;-64
2023/08/15 13:46:51;;;;;;;11.82;11.32;;;;;;;;;;5071030;28;20027;-65
2023/08/15 13:49:16;;;;;;;11.85;11.35;;;;;;;;;;5067968;28;20475;-63
2023/08/15 13:51:41;;;;;;;11.45;10.95;;;;;;;;;;5068395;28;20023;-64
2023/08/15 13:54:07;;;;;;;11.60;11.10;;;;;;;;;;5070578;28;20385;-63
2023/08/15 13:56:33;;;;;;;11.57;11.07;;;;;;;;;;5070283;28;20254;-64
2023/08/15 13:58:58;;;;;;;11.35;10.85;;;;;;;;;;5067653;28;20510;-64
2023/08/15 14:01:23;;;;;;;11.30;10.80;;;;;;;;;;5070593;28;20094;-64
2023/08/15 14:03:49;;;;;;;11.65;11.15;;;;;;;;;;5061147;28;20045;-64
2023/08/15 14:06:14;;;;;;;11.98;11.48;;;;;;;;;;5050750;28;20075;-64
2023/08/15 14:08:39;;;;;;;11.65;11.15;;;;;;;;;;5058034;28;20044;-65
2023/08/15 14:11:05;;;;;;;11.70;11.20;;;;;;;;;;5057748;28;20038;-64